createdAt,value
2018-06-04T00:09:15.859Z,23.8
2018-06-04T00:19:15.089Z,23.8
2018-06-04T00:29:14.411Z,23.6
2018-06-04T00:39:13.917Z,23.6
2018-06-04T00:49:13.455Z,23.7
2018-06-04T00:59:12.640Z,23.6
2018-06-04T01:09:11.353Z,23.4
2018-06-04T01:19:10.716Z,23.6
2018-06-04T01:29:10.104Z,23.6
2018-06-04T01:39:09.092Z,23.4
2018-06-04T01:49:08.522Z,23.4
2018-06-04T01:59:07.843Z,23.5
2018-06-04T02:09:07.608Z,23.4
2018-06-04T02:19:06.102Z,23.4
2018-06-04T02:29:05.134Z,23.4
2018-06-04T02:39:05.302Z,23.4
2018-06-04T02:49:03.891Z,23.3
2018-06-04T02:59:02.870Z,23.3
2018-06-04T03:09:03.187Z,23.3
2018-06-04T03:19:01.281Z,23.4
2018-06-04T03:29:00.530Z,23.5
2018-06-04T03:38:59.890Z,23.5
2018-06-04T03:48:59.011Z,21.8
2018-06-04T03:58:58.585Z,21.3
2018-06-04T04:08:57.497Z,21.2
2018-06-04T04:18:57.464Z,21.3
2018-06-04T04:28:56.306Z,22.1
2018-06-04T04:38:55.544Z,22.9
2018-06-04T04:48:54.715Z,23.6
2018-06-04T04:58:53.622Z,24.3
2018-06-04T05:08:54.336Z,24.9
2018-06-04T05:18:52.504Z,25.8
2018-06-04T05:28:51.898Z,25.8
2018-06-04T05:38:50.514Z,25.4
2018-06-04T05:48:49.783Z,25.1
2018-06-04T05:58:49.531Z,25.3
2018-06-04T06:08:48.196Z,25.3
2018-06-04T06:18:47.568Z,25.6
2018-06-04T06:28:46.787Z,26
2018-06-04T06:38:45.913Z,26.8
2018-06-04T06:48:45.738Z,28.1
2018-06-04T06:58:44.661Z,29.2
2018-06-04T07:08:44.148Z,29.9
2018-06-04T07:18:42.811Z,30.6
2018-06-04T07:28:42.152Z,31.3
2018-06-04T07:38:42.529Z,32
2018-06-04T07:48:41.073Z,32.4
2018-06-04T07:58:40.333Z,32.4
2018-06-04T08:08:39.320Z,32.7
2018-06-04T08:18:38.224Z,32.8
2018-06-04T08:28:38.032Z,32.9
2018-06-04T08:38:36.631Z,32
2018-06-04T08:48:35.997Z,30.9
2018-06-04T08:58:35.358Z,31.3
2018-06-04T09:08:34.682Z,31.9
2018-06-04T09:18:33.524Z,31.7
2018-06-04T09:28:33.010Z,32
2018-06-04T09:38:32.130Z,32
2018-06-04T09:48:31.319Z,32.1
2018-06-04T09:58:30.882Z,32.1
2018-06-04T10:08:29.727Z,32.1
2018-06-04T10:18:29.521Z,31.6
2018-06-04T10:28:28.235Z,31.4
2018-06-04T10:38:27.656Z,30.1
2018-06-04T10:48:27.196Z,30
2018-06-04T10:58:26.705Z,29.4
2018-06-04T11:08:25.112Z,29.9
2018-06-04T11:18:25.235Z,29.6
2018-06-04T11:28:24.178Z,29.4
2018-06-04T11:38:23.340Z,29.4
2018-06-04T11:48:22.163Z,29.1
2018-06-04T11:58:21.232Z,29.1
2018-06-04T12:08:20.482Z,29
2018-06-04T12:18:19.982Z,28.8
2018-06-04T12:28:19.877Z,28.6
2018-06-04T12:38:18.148Z,28.4
2018-06-04T12:48:17.703Z,28
2018-06-04T12:58:17.325Z,27.9
2018-06-04T13:08:16.163Z,28
2018-06-04T13:18:15.464Z,28.1
2018-06-04T13:28:14.449Z,28.1
2018-06-04T13:38:13.621Z,28.1
2018-06-04T13:48:12.980Z,27.9
2018-06-04T13:58:12.170Z,27.7
2018-06-04T14:08:12.051Z,27.6
2018-06-04T14:18:10.795Z,27.3
2018-06-04T14:28:10.470Z,26.9
2018-06-04T14:38:08.947Z,26.8
2018-06-04T14:48:08.228Z,26.6
2018-06-04T14:58:07.581Z,26.4
2018-06-04T15:08:06.653Z,26.3
2018-06-04T15:18:05.887Z,26.3
2018-06-04T15:28:05.481Z,26.1
2018-06-04T15:38:04.439Z,26.1
2018-06-04T15:48:04.297Z,26.1
2018-06-04T15:58:03.220Z,26.2
2018-06-04T16:08:02.679Z,26
2018-06-04T16:18:02.212Z,25.8
2018-06-04T16:28:00.961Z,25.8
2018-06-04T16:38:00.040Z,25.4
2018-06-04T16:47:59.084Z,25.2
2018-06-04T16:57:58.387Z,25.1
2018-06-04T17:07:57.565Z,25.1
2018-06-04T17:17:56.971Z,25.1
2018-06-04T17:27:56.229Z,24.9
2018-06-04T17:37:56.049Z,24.8
2018-06-04T17:47:54.779Z,24.6
2018-06-04T17:57:53.890Z,24.2
2018-06-04T18:07:53.065Z,23.9
2018-06-04T18:17:52.469Z,23.7
2018-06-04T18:27:51.945Z,23.6
2018-06-04T18:37:50.695Z,23.4
2018-06-04T18:47:50.821Z,23.3
2018-06-04T18:57:50.168Z,23.3
2018-06-04T19:07:49.035Z,23.1
2018-06-04T19:17:47.787Z,23
2018-06-04T19:27:47.078Z,22.6
2018-06-04T19:37:46.617Z,22.3
2018-06-04T19:47:45.877Z,21.9
2018-06-04T19:57:44.703Z,21.8
2018-06-04T20:07:43.685Z,21.6
2018-06-04T20:17:42.921Z,21.4
2018-06-04T20:27:42.440Z,21.3
2018-06-04T20:37:41.768Z,21.2
2018-06-04T20:47:40.665Z,20.8
2018-06-04T20:57:40.092Z,20.6
2018-06-04T21:07:39.061Z,20.6
2018-06-04T21:17:38.403Z,20.4
2018-06-04T21:27:37.484Z,20.4
2018-06-04T21:37:37.311Z,20.4
2018-06-04T21:47:36.061Z,20.6
2018-06-04T21:57:36.363Z,20.4
2018-06-04T22:07:35.147Z,20.1
2018-06-04T22:17:34.413Z,19.9
2018-06-04T22:27:32.886Z,19.9
2018-06-04T22:37:32.149Z,19.9
2018-06-04T22:47:31.436Z,20
2018-06-04T22:57:30.681Z,19.8
2018-06-04T23:07:29.916Z,19.4
2018-06-04T23:17:29.063Z,19.6
2018-06-04T23:27:28.851Z,19.6
2018-06-04T23:37:28.508Z,19.7
2018-06-04T23:47:27.162Z,19.3
2018-06-04T23:57:25.990Z,19.4
